sensor_id;sensor_type;location;lat;lon;timestamp;pressure;altitude;pressure_sealevel;temperature;humidity
57048;BME280;42934;54.294;18.598;2022-12-18T00:02:16;102225.31;;;-3.13;80.09
57048;BME280;42934;54.294;18.598;2022-12-18T00:04:45;102223.09;;;-3.24;80.34
57048;BME280;42934;54.294;18.598;2022-12-18T00:07:14;102228.75;;;-3.31;81.03
57048;BME280;42934;54.294;18.598;2022-12-18T00:09:43;102226.31;;;-3.28;80.85
57048;BME280;42934;54.294;18.598;2022-12-18T00:12:14;102238.28;;;-3.28;80.90
57048;BME280;42934;54.294;18.598;2022-12-18T00:14:48;102237.28;;;-3.32;80.80
57048;BME280;42934;54.294;18.598;2022-12-18T00:17:17;102237.28;;;-3.48;81.05
57048;BME280;42934;54.294;18.598;2022-12-18T00:19:47;102249.41;;;-3.46;80.91
57048;BME280;42934;54.294;18.598;2022-12-18T00:22:16;102231.13;;;-3.52;80.82
57048;BME280;42934;54.294;18.598;2022-12-18T00:24:45;102234.84;;;-3.63;81.62
57048;BME280;42934;54.294;18.598;2022-12-18T00:27:15;102242.63;;;-3.61;81.01
57048;BME280;42934;54.294;18.598;2022-12-18T00:29:45;102246.81;;;-3.63;81.05
57048;BME280;42934;54.294;18.598;2022-12-18T00:32:14;102244.81;;;-3.69;81.32
57048;BME280;42934;54.294;18.598;2022-12-18T00:34:43;102252.84;;;-3.79;81.25
57048;BME280;42934;54.294;18.598;2022-12-18T00:37:12;102248.34;;;-3.83;81.86
57048;BME280;42934;54.294;18.598;2022-12-18T00:39:51;102257.00;;;-3.81;81.12
57048;BME280;42934;54.294;18.598;2022-12-18T00:42:21;102257.56;;;-3.87;81.85
57048;BME280;42934;54.294;18.598;2022-12-18T00:45:08;102267.75;;;-3.89;81.67
57048;BME280;42934;54.294;18.598;2022-12-18T00:47:40;102256.94;;;-3.99;82.42
57048;BME280;42934;54.294;18.598;2022-12-18T00:50:09;102263.38;;;-3.91;81.67
57048;BME280;42934;54.294;18.598;2022-12-18T00:52:40;102263.44;;;-3.90;81.51
57048;BME280;42934;54.294;18.598;2022-12-18T00:55:11;102265.25;;;-4.03;82.09
57048;BME280;42934;54.294;18.598;2022-12-18T00:57:41;102270.31;;;-4.05;82.54
57048;BME280;42934;54.294;18.598;2022-12-18T01:00:14;102272.78;;;-4.06;82.81
57048;BME280;42934;54.294;18.598;2022-12-18T01:02:43;102275.69;;;-4.00;81.85
57048;BME280;42934;54.294;18.598;2022-12-18T01:05:14;102269.34;;;-4.07;82.23
57048;BME280;42934;54.294;18.598;2022-12-18T01:07:43;102271.19;;;-4.04;82.71
57048;BME280;42934;54.294;18.598;2022-12-18T01:10:13;102269.75;;;-4.16;82.99
57048;BME280;42934;54.294;18.598;2022-12-18T01:12:44;102278.75;;;-4.07;83.15
57048;BME280;42934;54.294;18.598;2022-12-18T01:15:14;102279.47;;;-4.10;82.80
57048;BME280;42934;54.294;18.598;2022-12-18T01:17:43;102287.41;;;-4.05;83.47
57048;BME280;42934;54.294;18.598;2022-12-18T01:20:13;102289.31;;;-4.01;83.23
57048;BME280;42934;54.294;18.598;2022-12-18T01:22:42;102294.44;;;-4.01;83.56
57048;BME280;42934;54.294;18.598;2022-12-18T01:25:11;102295.44;;;-3.99;82.86
57048;BME280;42934;54.294;18.598;2022-12-18T01:27:41;102293.91;;;-3.96;83.57
57048;BME280;42934;54.294;18.598;2022-12-18T01:30:12;102292.47;;;-3.91;83.21
57048;BME280;42934;54.294;18.598;2022-12-18T01:32:41;102289.97;;;-3.89;82.99
57048;BME280;42934;54.294;18.598;2022-12-18T01:35:10;102291.09;;;-3.84;83.34
57048;BME280;42934;54.294;18.598;2022-12-18T01:37:39;102293.97;;;-3.78;82.60
57048;BME280;42934;54.294;18.598;2022-12-18T01:40:09;102293.16;;;-3.77;82.90
57048;BME280;42934;54.294;18.598;2022-12-18T01:42:39;102295.50;;;-3.81;83.31
57048;BME280;42934;54.294;18.598;2022-12-18T01:45:25;102298.38;;;-3.75;83.13
57048;BME280;42934;54.294;18.598;2022-12-18T01:47:57;102293.25;;;-3.75;82.96
57048;BME280;42934;54.294;18.598;2022-12-18T01:50:31;102291.81;;;-3.70;82.50
57048;BME280;42934;54.294;18.598;2022-12-18T01:53:05;102292.84;;;-3.67;83.77
57048;BME280;42934;54.294;18.598;2022-12-18T01:55:38;102297.50;;;-3.59;82.96
57048;BME280;42934;54.294;18.598;2022-12-18T01:58:10;102297.78;;;-3.53;82.98
57048;BME280;42934;54.294;18.598;2022-12-18T02:00:41;102292.97;;;-3.47;82.82
57048;BME280;42934;54.294;18.598;2022-12-18T02:03:11;102301.81;;;-3.42;83.14
57048;BME280;42934;54.294;18.598;2022-12-18T02:05:45;102294.25;;;-3.39;82.66
57048;BME280;42934;54.294;18.598;2022-12-18T02:08:22;102302.91;;;-3.37;83.87
57048;BME280;42934;54.294;18.598;2022-12-18T02:11:00;102301.31;;;-3.35;84.28
57048;BME280;42934;54.294;18.598;2022-12-18T02:13:39;102301.69;;;-3.27;83.98
57048;BME280;42934;54.294;18.598;2022-12-18T02:16:17;102307.22;;;-3.20;83.69
57048;BME280;42934;54.294;18.598;2022-12-18T02:18:52;102308.97;;;-3.18;84.09
57048;BME280;42934;54.294;18.598;2022-12-18T02:21:31;102307.38;;;-3.16;83.97
57048;BME280;42934;54.294;18.598;2022-12-18T02:24:17;102306.72;;;-3.12;84.18
57048;BME280;42934;54.294;18.598;2022-12-18T02:26:55;102310.50;;;-3.06;84.07
57048;BME280;42934;54.294;18.598;2022-12-18T02:29:31;102309.00;;;-3.01;84.16
57048;BME280;42934;54.294;18.598;2022-12-18T02:32:04;102312.16;;;-3.06;85.14
57048;BME280;42934;54.294;18.598;2022-12-18T02:34:38;102316.94;;;-2.96;84.57
57048;BME280;42934;54.294;18.598;2022-12-18T02:37:14;102316.13;;;-2.95;84.93
57048;BME280;42934;54.294;18.598;2022-12-18T02:39:47;102320.06;;;-2.85;84.15
57048;BME280;42934;54.294;18.598;2022-12-18T02:42:20;102316.97;;;-2.78;83.54
57048;BME280;42934;54.294;18.598;2022-12-18T02:44:51;102322.16;;;-2.77;83.74
57048;BME280;42934;54.294;18.598;2022-12-18T02:47:29;102323.22;;;-2.73;83.49
57048;BME280;42934;54.294;18.598;2022-12-18T02:50:08;102328.50;;;-2.70;83.35
57048;BME280;42934;54.294;18.598;2022-12-18T02:52:47;102322.53;;;-2.69;83.22
57048;BME280;42934;54.294;18.598;2022-12-18T02:55:29;102323.13;;;-2.75;83.24
57048;BME280;42934;54.294;18.598;2022-12-18T02:58:14;102325.06;;;-2.70;83.05
57048;BME280;42934;54.294;18.598;2022-12-18T03:00:52;102326.00;;;-2.68;83.09
57048;BME280;42934;54.294;18.598;2022-12-18T03:03:26;102330.56;;;-2.63;82.52
57048;BME280;42934;54.294;18.598;2022-12-18T03:06:02;102332.97;;;-2.66;82.56
57048;BME280;42934;54.294;18.598;2022-12-18T03:08:37;102327.84;;;-2.66;82.13
57048;BME280;42934;54.294;18.598;2022-12-18T03:11:10;102330.22;;;-2.70;82.14
57048;BME280;42934;54.294;18.598;2022-12-18T03:13:44;102326.88;;;-2.68;82.20
57048;BME280;42934;54.294;18.598;2022-12-18T03:16:19;102332.94;;;-2.67;82.42
57048;BME280;42934;54.294;18.598;2022-12-18T03:18:54;102331.88;;;-2.71;82.01
57048;BME280;42934;54.294;18.598;2022-12-18T03:21:28;102338.34;;;-2.61;82.22
57048;BME280;42934;54.294;18.598;2022-12-18T03:23:59;102341.81;;;-2.61;81.74
57048;BME280;42934;54.294;18.598;2022-12-18T03:26:29;102349.53;;;-2.61;81.95
57048;BME280;42934;54.294;18.598;2022-12-18T03:29:07;102335.94;;;-2.58;81.61
57048;BME280;42934;54.294;18.598;2022-12-18T03:31:40;102346.22;;;-2.58;81.34
57048;BME280;42934;54.294;18.598;2022-12-18T03:34:14;102351.84;;;-2.65;81.38
57048;BME280;42934;54.294;18.598;2022-12-18T03:36:46;102355.53;;;-2.60;81.41
57048;BME280;42934;54.294;18.598;2022-12-18T03:39:16;102354.81;;;-2.58;81.14
57048;BME280;42934;54.294;18.598;2022-12-18T03:41:57;102362.59;;;-2.56;81.18
57048;BME280;42934;54.294;18.598;2022-12-18T03:44:42;102370.28;;;-2.56;80.97
57048;BME280;42934;54.294;18.598;2022-12-18T03:47:16;102374.41;;;-2.60;80.92
57048;BME280;42934;54.294;18.598;2022-12-18T03:49:54;102366.84;;;-2.57;80.89
57048;BME280;42934;54.294;18.598;2022-12-18T03:52:35;102367.00;;;-2.54;80.62
57048;BME280;42934;54.294;18.598;2022-12-18T03:55:08;102378.97;;;-2.54;80.39
57048;BME280;42934;54.294;18.598;2022-12-18T03:57:41;102374.72;;;-2.54;80.23
57048;BME280;42934;54.294;18.598;2022-12-18T04:00:15;102386.84;;;-2.51;80.25
57048;BME280;42934;54.294;18.598;2022-12-18T04:02:56;102382.50;;;-2.52;79.77
57048;BME280;42934;54.294;18.598;2022-12-18T04:05:34;102399.56;;;-2.54;79.64
57048;BME280;42934;54.294;18.598;2022-12-18T04:08:06;102394.25;;;-2.57;79.58
57048;BME280;42934;54.294;18.598;2022-12-18T04:10:38;102403.97;;;-2.52;79.84
57048;BME280;42934;54.294;18.598;2022-12-18T04:13:08;102395.53;;;-2.49;79.73
57048;BME280;42934;54.294;18.598;2022-12-18T04:15:39;102402.22;;;-2.53;79.50
57048;BME280;42934;54.294;18.598;2022-12-18T04:18:13;102401.16;;;-2.56;79.33
57048;BME280;42934;54.294;18.598;2022-12-18T04:20:44;102397.81;;;-2.55;78.99
57048;BME280;42934;54.294;18.598;2022-12-18T04:23:13;102400.44;;;-2.54;78.96
57048;BME280;42934;54.294;18.598;2022-12-18T04:25:42;102398.69;;;-2.55;79.27
57048;BME280;42934;54.294;18.598;2022-12-18T04:28:17;102396.69;;;-2.60;78.84
57048;BME280;42934;54.294;18.598;2022-12-18T04:30:49;102397.81;;;-2.55;79.18
57048;BME280;42934;54.294;18.598;2022-12-18T04:33:20;102401.81;;;-2.60;79.07
57048;BME280;42934;54.294;18.598;2022-12-18T04:35:50;102405.22;;;-2.61;78.88
57048;BME280;42934;54.294;18.598;2022-12-18T04:38:19;102407.91;;;-2.76;78.56
57048;BME280;42934;54.294;18.598;2022-12-18T04:40:55;102407.00;;;-2.77;78.89
57048;BME280;42934;54.294;18.598;2022-12-18T04:43:27;102409.91;;;-2.70;78.83
57048;BME280;42934;54.294;18.598;2022-12-18T04:46:03;102420.09;;;-2.72;78.45
57048;BME280;42934;54.294;18.598;2022-12-18T04:48:33;102415.94;;;-2.70;78.39
57048;BME280;42934;54.294;18.598;2022-12-18T04:51:03;102426.41;;;-2.65;78.75
57048;BME280;42934;54.294;18.598;2022-12-18T04:53:32;102416.06;;;-2.67;78.55
57048;BME280;42934;54.294;18.598;2022-12-18T04:56:06;102424.81;;;-2.63;78.71
57048;BME280;42934;54.294;18.598;2022-12-18T04:58:35;102423.50;;;-2.73;78.08
57048;BME280;42934;54.294;18.598;2022-12-18T05:01:07;102424.38;;;-2.72;78.41
57048;BME280;42934;54.294;18.598;2022-12-18T05:03:37;102428.06;;;-2.67;78.47
57048;BME280;42934;54.294;18.598;2022-12-18T05:06:08;102426.94;;;-2.72;78.54
57048;BME280;42934;54.294;18.598;2022-12-18T05:08:37;102432.81;;;-2.75;78.23
57048;BME280;42934;54.294;18.598;2022-12-18T05:11:08;102433.69;;;-2.75;78.20
57048;BME280;42934;54.294;18.598;2022-12-18T05:13:38;102448.72;;;-2.82;78.21
57048;BME280;42934;54.294;18.598;2022-12-18T05:16:10;102445.41;;;-2.80;78.16
57048;BME280;42934;54.294;18.598;2022-12-18T05:18:39;102450.66;;;-2.78;78.78
57048;BME280;42934;54.294;18.598;2022-12-18T05:21:09;102446.16;;;-2.82;78.60
57048;BME280;42934;54.294;18.598;2022-12-18T05:23:38;102451.53;;;-2.78;78.35
57048;BME280;42934;54.294;18.598;2022-12-18T05:26:08;102458.25;;;-2.80;78.31
57048;BME280;42934;54.294;18.598;2022-12-18T05:28:37;102457.53;;;-2.77;78.19
57048;BME280;42934;54.294;18.598;2022-12-18T05:31:07;102465.03;;;-2.82;78.55
57048;BME280;42934;54.294;18.598;2022-12-18T05:33:37;102467.91;;;-2.76;77.99
57048;BME280;42934;54.294;18.598;2022-12-18T05:36:09;102462.94;;;-2.72;78.26
57048;BME280;42934;54.294;18.598;2022-12-18T05:38:39;102473.28;;;-2.71;78.08
57048;BME280;42934;54.294;18.598;2022-12-18T05:41:09;102468.22;;;-2.69;78.10
57048;BME280;42934;54.294;18.598;2022-12-18T05:43:39;102474.09;;;-2.72;78.06
57048;BME280;42934;54.294;18.598;2022-12-18T05:46:13;102478.34;;;-2.72;78.17
57048;BME280;42934;54.294;18.598;2022-12-18T05:48:44;102482.63;;;-2.73;77.80
57048;BME280;42934;54.294;18.598;2022-12-18T05:51:16;102480.84;;;-2.74;78.40
57048;BME280;42934;54.294;18.598;2022-12-18T05:53:46;102486.22;;;-2.69;78.09
57048;BME280;42934;54.294;18.598;2022-12-18T05:56:16;102489.44;;;-2.73;77.85
57048;BME280;42934;54.294;18.598;2022-12-18T05:58:47;102485.25;;;-2.71;77.86
57048;BME280;42934;54.294;18.598;2022-12-18T06:01:20;102488.53;;;-2.74;77.78
57048;BME280;42934;54.294;18.598;2022-12-18T06:03:51;102492.19;;;-2.70;77.70
57048;BME280;42934;54.294;18.598;2022-12-18T06:06:23;102492.19;;;-2.70;77.66
57048;BME280;42934;54.294;18.598;2022-12-18T06:08:53;102497.94;;;-2.75;77.62
57048;BME280;42934;54.294;18.598;2022-12-18T06:11:25;102504.69;;;-2.77;77.73
57048;BME280;42934;54.294;18.598;2022-12-18T06:13:55;102514.50;;;-2.69;77.67
57048;BME280;42934;54.294;18.598;2022-12-18T06:16:28;102502.63;;;-2.67;77.61
57048;BME280;42934;54.294;18.598;2022-12-18T06:19:00;102505.75;;;-2.73;77.68
57048;BME280;42934;54.294;18.598;2022-12-18T06:21:31;102514.19;;;-2.76;77.83
57048;BME280;42934;54.294;18.598;2022-12-18T06:24:01;102516.19;;;-2.70;77.51
57048;BME280;42934;54.294;18.598;2022-12-18T06:26:31;102508.22;;;-2.75;77.51
57048;BME280;42934;54.294;18.598;2022-12-18T06:29:00;102516.03;;;-2.73;77.36
57048;BME280;42934;54.294;18.598;2022-12-18T06:31:29;102516.66;;;-2.77;77.21
57048;BME280;42934;54.294;18.598;2022-12-18T06:34:02;102518.53;;;-2.75;77.96
57048;BME280;42934;54.294;18.598;2022-12-18T06:36:32;102533.16;;;-2.90;77.31
57048;BME280;42934;54.294;18.598;2022-12-18T06:39:01;102522.53;;;-2.80;77.73
57048;BME280;42934;54.294;18.598;2022-12-18T06:41:31;102537.22;;;-2.77;77.02
57048;BME280;42934;54.294;18.598;2022-12-18T06:44:00;102539.91;;;-2.76;77.10
57048;BME280;42934;54.294;18.598;2022-12-18T06:46:29;102549.94;;;-2.80;77.09
57048;BME280;42934;54.294;18.598;2022-12-18T06:49:01;102549.22;;;-2.78;76.75
57048;BME280;42934;54.294;18.598;2022-12-18T06:51:30;102550.91;;;-2.78;77.13
57048;BME280;42934;54.294;18.598;2022-12-18T06:53:59;102558.44;;;-2.81;77.02
57048;BME280;42934;54.294;18.598;2022-12-18T06:56:29;102555.78;;;-2.83;76.74
57048;BME280;42934;54.294;18.598;2022-12-18T06:58:58;102558.34;;;-2.83;76.71
57048;BME280;42934;54.294;18.598;2022-12-18T07:01:27;102565.84;;;-2.87;76.70
57048;BME280;42934;54.294;18.598;2022-12-18T07:03:57;102567.38;;;-2.91;76.87
57048;BME280;42934;54.294;18.598;2022-12-18T07:06:28;102562.84;;;-2.95;77.02
57048;BME280;42934;54.294;18.598;2022-12-18T07:08:57;102571.28;;;-2.98;76.51
57048;BME280;42934;54.294;18.598;2022-12-18T07:11:26;102571.53;;;-2.93;77.13
57048;BME280;42934;54.294;18.598;2022-12-18T07:13:55;102571.28;;;-2.98;76.81
57048;BME280;42934;54.294;18.598;2022-12-18T07:16:25;102587.84;;;-2.92;76.94
57048;BME280;42934;54.294;18.598;2022-12-18T07:18:56;102591.94;;;-2.96;76.98
57048;BME280;42934;54.294;18.598;2022-12-18T07:21:27;102591.38;;;-2.90;76.86
57048;BME280;42934;54.294;18.598;2022-12-18T07:23:56;102593.06;;;-2.91;76.53
57048;BME280;42934;54.294;18.598;2022-12-18T07:26:26;102595.16;;;-2.84;76.69
57048;BME280;42934;54.294;18.598;2022-12-18T07:28:56;102593.47;;;-2.83;76.63
57048;BME280;42934;54.294;18.598;2022-12-18T07:31:26;102601.75;;;-2.72;76.76
57048;BME280;42934;54.294;18.598;2022-12-18T07:33:56;102602.09;;;-2.66;76.70
57048;BME280;42934;54.294;18.598;2022-12-18T07:36:27;102597.75;;;-2.67;76.85
57048;BME280;42934;54.294;18.598;2022-12-18T07:38:56;102604.06;;;-2.77;76.31
57048;BME280;42934;54.294;18.598;2022-12-18T07:41:26;102593.78;;;-2.77;76.57
57048;BME280;42934;54.294;18.598;2022-12-18T07:43:55;102598.16;;;-2.76;76.46
57048;BME280;42934;54.294;18.598;2022-12-18T07:46:24;102607.88;;;-2.70;76.76
57048;BME280;42934;54.294;18.598;2022-12-18T07:48:53;102612.09;;;-2.71;76.66
57048;BME280;42934;54.294;18.598;2022-12-18T07:51:23;102621.28;;;-2.76;76.54
57048;BME280;42934;54.294;18.598;2022-12-18T07:53:53;102620.38;;;-2.77;76.47
57048;BME280;42934;54.294;18.598;2022-12-18T07:56:22;102624.25;;;-2.85;76.54
57048;BME280;42934;54.294;18.598;2022-12-18T07:58:55;102626.81;;;-2.85;76.60
57048;BME280;42934;54.294;18.598;2022-12-18T08:01:25;102616.22;;;-2.75;76.76
57048;BME280;42934;54.294;18.598;2022-12-18T08:03:54;102622.97;;;-2.60;76.77
57048;BME280;42934;54.294;18.598;2022-12-18T08:06:24;102621.75;;;-2.51;76.74
57048;BME280;42934;54.294;18.598;2022-12-18T08:08:55;102632.38;;;-2.44;76.38
57048;BME280;42934;54.294;18.598;2022-12-18T08:11:26;102630.03;;;-2.40;76.40
57048;BME280;42934;54.294;18.598;2022-12-18T08:13:57;102629.22;;;-2.39;76.08
57048;BME280;42934;54.294;18.598;2022-12-18T08:16:27;102635.66;;;-2.31;76.07
57048;BME280;42934;54.294;18.598;2022-12-18T08:18:56;102642.66;;;-2.28;76.20
57048;BME280;42934;54.294;18.598;2022-12-18T08:21:27;102643.63;;;-2.26;75.85
57048;BME280;42934;54.294;18.598;2022-12-18T08:23:59;102647.41;;;-2.19;75.50
57048;BME280;42934;54.294;18.598;2022-12-18T08:26:30;102644.88;;;-2.18;75.78
57048;BME280;42934;54.294;18.598;2022-12-18T08:29:00;102645.81;;;-2.17;75.24
57048;BME280;42934;54.294;18.598;2022-12-18T08:31:30;102644.16;;;-2.15;75.15
57048;BME280;42934;54.294;18.598;2022-12-18T08:34:00;102649.31;;;-2.15;75.38
57048;BME280;42934;54.294;18.598;2022-12-18T08:36:30;102647.88;;;-2.10;74.97
57048;BME280;42934;54.294;18.598;2022-12-18T08:39:00;102653.16;;;-2.07;74.28
57048;BME280;42934;54.294;18.598;2022-12-18T08:41:30;102649.78;;;-2.06;74.70
57048;BME280;42934;54.294;18.598;2022-12-18T08:43:59;102635.41;;;-2.02;74.38
57048;BME280;42934;54.294;18.598;2022-12-18T08:46:46;102642.56;;;-1.97;74.40
57048;BME280;42934;54.294;18.598;2022-12-18T08:49:15;102643.81;;;-1.89;74.63
57048;BME280;42934;54.294;18.598;2022-12-18T08:51:45;102643.06;;;-1.86;74.10
57048;BME280;42934;54.294;18.598;2022-12-18T08:54:15;102651.81;;;-1.83;74.09
57048;BME280;42934;54.294;18.598;2022-12-18T08:56:44;102642.44;;;-1.82;74.06
57048;BME280;42934;54.294;18.598;2022-12-18T08:59:13;102640.00;;;-1.79;74.21
57048;BME280;42934;54.294;18.598;2022-12-18T09:01:47;102645.44;;;-1.91;72.70
57048;BME280;42934;54.294;18.598;2022-12-18T09:04:17;102642.28;;;-1.85;72.75
57048;BME280;42934;54.294;18.598;2022-12-18T09:06:46;102647.44;;;-1.85;71.93
57048;BME280;42934;54.294;18.598;2022-12-18T09:09:17;102655.31;;;-1.82;70.89
57048;BME280;42934;54.294;18.598;2022-12-18T09:11:46;102661.19;;;-1.85;70.85
57048;BME280;42934;54.294;18.598;2022-12-18T09:14:15;102669.28;;;-1.77;71.65
57048;BME280;42934;54.294;18.598;2022-12-18T09:16:45;102665.91;;;-1.76;70.95
57048;BME280;42934;54.294;18.598;2022-12-18T09:19:14;102660.66;;;-1.61;71.78
57048;BME280;42934;54.294;18.598;2022-12-18T09:21:43;102655.94;;;-1.52;71.74
57048;BME280;42934;54.294;18.598;2022-12-18T09:24:16;102661.28;;;-1.47;71.95
57048;BME280;42934;54.294;18.598;2022-12-18T09:26:46;102653.94;;;-1.57;70.34
57048;BME280;42934;54.294;18.598;2022-12-18T09:29:17;102658.56;;;-1.50;70.47
57048;BME280;42934;54.294;18.598;2022-12-18T09:31:46;102676.25;;;-1.40;70.55
57048;BME280;42934;54.294;18.598;2022-12-18T09:34:17;102673.69;;;-1.40;69.28
57048;BME280;42934;54.294;18.598;2022-12-18T09:36:50;102668.09;;;-1.31;69.35
57048;BME280;42934;54.294;18.598;2022-12-18T09:39:20;102668.53;;;-1.22;69.93
57048;BME280;42934;54.294;18.598;2022-12-18T09:41:52;102665.56;;;-1.12;70.46
57048;BME280;42934;54.294;18.598;2022-12-18T09:44:26;102658.22;;;-1.04;70.96
57048;BME280;42934;54.294;18.598;2022-12-18T09:47:04;102665.25;;;-1.00;70.31
57048;BME280;42934;54.294;18.598;2022-12-18T09:49:39;102669.41;;;-1.04;69.57
57048;BME280;42934;54.294;18.598;2022-12-18T09:52:16;102681.69;;;-0.98;69.74
57048;BME280;42934;54.294;18.598;2022-12-18T09:54:52;102672.84;;;-1.03;67.70
57048;BME280;42934;54.294;18.598;2022-12-18T09:57:24;102682.53;;;-0.99;67.64
57048;BME280;42934;54.294;18.598;2022-12-18T09:59:56;102670.06;;;-0.90;68.99
57048;BME280;42934;54.294;18.598;2022-12-18T10:02:38;102677.94;;;-0.87;68.22
57048;BME280;42934;54.294;18.598;2022-12-18T10:05:12;102669.47;;;-0.84;68.21
57048;BME280;42934;54.294;18.598;2022-12-18T10:07:50;102670.44;;;-0.82;67.45
57048;BME280;42934;54.294;18.598;2022-12-18T10:10:34;102672.31;;;-0.78;66.56
57048;BME280;42934;54.294;18.598;2022-12-18T10:13:12;102660.06;;;-0.64;67.92
57048;BME280;42934;54.294;18.598;2022-12-18T10:15:54;102660.72;;;-0.69;67.09
57048;BME280;42934;54.294;18.598;2022-12-18T10:18:36;102663.53;;;-0.64;66.14
57048;BME280;42934;54.294;18.598;2022-12-18T10:21:09;102672.75;;;-0.69;64.55
57048;BME280;42934;54.294;18.598;2022-12-18T10:23:44;102672.41;;;-0.57;65.36
57048;BME280;42934;54.294;18.598;2022-12-18T10:26:18;102676.38;;;-0.46;66.11
57048;BME280;42934;54.294;18.598;2022-12-18T10:28:48;102681.44;;;-0.48;65.77
57048;BME280;42934;54.294;18.598;2022-12-18T10:31:21;102683.78;;;-0.34;66.47
57048;BME280;42934;54.294;18.598;2022-12-18T10:33:53;102677.94;;;-0.30;65.76
57048;BME280;42934;54.294;18.598;2022-12-18T10:36:23;102678.00;;;-0.29;66.07
57048;BME280;42934;54.294;18.598;2022-12-18T10:38:53;102681.69;;;-0.43;64.51
57048;BME280;42934;54.294;18.598;2022-12-18T10:41:27;102676.97;;;-0.52;64.70
57048;BME280;42934;54.294;18.598;2022-12-18T10:44:15;102676.09;;;-0.52;64.52
57048;BME280;42934;54.294;18.598;2022-12-18T10:46:45;102675.38;;;-0.50;65.39
57048;BME280;42934;54.294;18.598;2022-12-18T10:49:24;102680.38;;;-0.53;63.71
57048;BME280;42934;54.294;18.598;2022-12-18T10:52:07;102680.38;;;-0.53;62.87
57048;BME280;42934;54.294;18.598;2022-12-18T10:54:48;102685.34;;;-0.38;64.14
57048;BME280;42934;54.294;18.598;2022-12-18T10:57:33;102652.13;;;-0.50;64.11
57048;BME280;42934;54.294;18.598;2022-12-18T11:00:33;102670.59;;;-0.40;63.81
57048;BME280;42934;54.294;18.598;2022-12-18T11:03:07;102674.13;;;-0.38;63.61
57048;BME280;42934;54.294;18.598;2022-12-18T11:06:02;102678.06;;;-0.27;65.01
57048;BME280;42934;54.294;18.598;2022-12-18T11:08:32;102678.75;;;-0.31;63.32
57048;BME280;42934;54.294;18.598;2022-12-18T11:11:02;102688.59;;;-0.22;64.53
57048;BME280;42934;54.294;18.598;2022-12-18T11:13:33;102683.66;;;-0.37;62.59
57048;BME280;42934;54.294;18.598;2022-12-18T11:16:02;102680.47;;;-0.32;63.53
57048;BME280;42934;54.294;18.598;2022-12-18T11:18:33;102686.78;;;-0.25;64.13
57048;BME280;42934;54.294;18.598;2022-12-18T11:21:07;102687.72;;;-0.42;62.49
57048;BME280;42934;54.294;18.598;2022-12-18T11:23:46;102698.53;;;-0.32;64.40
57048;BME280;42934;54.294;18.598;2022-12-18T11:26:16;102695.41;;;-0.44;62.90
57048;BME280;42934;54.294;18.598;2022-12-18T11:28:51;102687.81;;;-0.41;63.95
57048;BME280;42934;54.294;18.598;2022-12-18T11:31:26;102697.22;;;-0.41;63.49
57048;BME280;42934;54.294;18.598;2022-12-18T11:34:02;102684.44;;;-0.38;63.88
57048;BME280;42934;54.294;18.598;2022-12-18T11:36:55;102680.50;;;-0.30;64.18
57048;BME280;42934;54.294;18.598;2022-12-18T11:39:33;102678.50;;;-0.37;63.86
57048;BME280;42934;54.294;18.598;2022-12-18T11:42:09;102689.59;;;-0.38;63.66
57048;BME280;42934;54.294;18.598;2022-12-18T11:44:49;102694.50;;;-0.44;62.71
57048;BME280;42934;54.294;18.598;2022-12-18T11:47:25;102697.16;;;-0.43;62.30
57048;BME280;42934;54.294;18.598;2022-12-18T11:50:01;102707.06;;;-0.33;62.78
57048;BME280;42934;54.294;18.598;2022-12-18T11:52:36;102715.84;;;-0.10;62.62
57048;BME280;42934;54.294;18.598;2022-12-18T11:55:12;102723.47;;;0.07;62.65
57048;BME280;42934;54.294;18.598;2022-12-18T11:57:54;102727.97;;;0.32;61.26
57048;BME280;42934;54.294;18.598;2022-12-18T12:00:28;102734.22;;;0.37;59.96
57048;BME280;42934;54.294;18.598;2022-12-18T12:03:19;102734.75;;;0.70;61.16
57048;BME280;42934;54.294;18.598;2022-12-18T12:06:07;102730.75;;;0.77;61.62
57048;BME280;42934;54.294;18.598;2022-12-18T12:08:49;102733.69;;;0.86;59.83
57048;BME280;42934;54.294;18.598;2022-12-18T12:11:29;102727.19;;;0.96;60.32
57048;BME280;42934;54.294;18.598;2022-12-18T12:14:14;102720.84;;;1.10;60.92
57048;BME280;42934;54.294;18.598;2022-12-18T12:16:56;102728.81;;;1.37;61.29
57048;BME280;42934;54.294;18.598;2022-12-18T12:19:36;102720.28;;;1.40;60.11
57048;BME280;42934;54.294;18.598;2022-12-18T12:22:13;102737.53;;;1.39;60.24
57048;BME280;42934;54.294;18.598;2022-12-18T12:24:54;102720.75;;;1.52;59.63
57048;BME280;42934;54.294;18.598;2022-12-18T12:27:36;102718.44;;;1.59;59.83
57048;BME280;42934;54.294;18.598;2022-12-18T12:30:10;102715.09;;;1.62;58.90
57048;BME280;42934;54.294;18.598;2022-12-18T12:32:59;102702.72;;;1.55;57.60
57048;BME280;42934;54.294;18.598;2022-12-18T12:35:38;102714.19;;;1.62;58.91
57048;BME280;42934;54.294;18.598;2022-12-18T12:38:13;102712.50;;;1.62;59.57
57048;BME280;42934;54.294;18.598;2022-12-18T12:40:46;102698.09;;;1.46;59.20
57048;BME280;42934;54.294;18.598;2022-12-18T12:43:28;102701.28;;;1.17;59.51
57048;BME280;42934;54.294;18.598;2022-12-18T12:46:02;102713.28;;;0.94;60.08
57048;BME280;42934;54.294;18.598;2022-12-18T12:48:43;102715.84;;;0.71;59.55
57048;BME280;42934;54.294;18.598;2022-12-18T12:51:17;102726.50;;;0.58;60.60
57048;BME280;42934;54.294;18.598;2022-12-18T12:53:47;102718.72;;;0.37;60.42
57048;BME280;42934;54.294;18.598;2022-12-18T12:56:20;102717.00;;;0.37;61.25
57048;BME280;42934;54.294;18.598;2022-12-18T12:58:56;102720.72;;;0.23;61.75
57048;BME280;42934;54.294;18.598;2022-12-18T13:01:34;102719.00;;;0.23;62.02
57048;BME280;42934;54.294;18.598;2022-12-18T13:04:18;102715.91;;;0.11;62.04
57048;BME280;42934;54.294;18.598;2022-12-18T13:06:56;102719.34;;;0.12;62.61
57048;BME280;42934;54.294;18.598;2022-12-18T13:09:30;102720.78;;;0.05;62.93
57048;BME280;42934;54.294;18.598;2022-12-18T13:12:04;102723.13;;;-0.01;62.28